Luís Guimarães

Olheiro - Cruzeiro
14 Out 2027
Quinta-feira
Processo

Personalidade

Adaptabilidade (17) Ambição (10) Controvérsia (14) Lealdade (18) Pressão (6) Profissionalismo (11) Espírito Esportivo (2) Temperamento (4)

Perfil

Estilo de Treinamento Democrático
Licença Continental Pro
Determinação 14
Gestão de Pessoas 12
Motivação 14
Disciplina 11
Satisfação no Trabalho
49%
Fadiga
0%
Função Olheiro
Salário 22.8K p/s
Contrato 14.03.2029

Desempenho

Comportamento Bom
Eficácia do Treinamento
27%
Desenvolvimento do Jogador
55%
Prevenção de Lesões
65%
Implementação Tática
30%

Eventos Recentes

Participou de uma reunião de recrutamento 7d atrás
Participou de uma reunião de recrutamento 14d atrás
Participou de uma reunião de recrutamento 21d atrás
Participou de uma reunião de recrutamento 28d atrás
Participou de uma reunião de recrutamento 35d atrás
Participou de uma reunião de recrutamento 42d atrás
Participou de uma reunião de recrutamento 49d atrás
Participou de uma reunião de recrutamento 56d atrás

Monitorando agora

68
Jogador Clube Status Habilidade Confiança Observado Última observação Último voto
Álvaro Barreal Santos Perdido 141 / 130 69% 1 05.07.2027 Aprovar
Lucas Moura Sport Recife Perdido 136 / 141 69% 1 21.06.2027 -
Gabriel Taliari Juventude Perdido 115 / 117 69% 1 06.06.2027 -
Soungoutou Magassa West Ham United Ativo 141 / 134 40% 2 29.05.2027 -
Callum Doyle Wrexham Ativo 121 / 127 40% 2 29.05.2027 -
Murillo Nottingham Forest Ativo 144 / 156 40% 2 28.05.2027 -
Nobel Mendy Hull City Ativo 138 / 141 40% 1 28.05.2027 -
Mandla Erasmus SuperSport United Ativo 115 / 111 40% 5 27.05.2027 -
Juan Mosquera Sheffield Wednesday Ativo 126 / 136 40% 1 27.05.2027 -
Othmane Maamma Watford Ativo 134 / 131 40% 1 27.05.2027 -
Georgie Gent Barnsley Ativo 101 / 114 40% 2 23.05.2027 -
Lewis Bate Stockport County Ativo 111 / 120 40% 1 23.05.2027 -
Yankuba Minteh Brighton Ativo 154 / 163 40% 1 22.05.2027 -
Yehor Yarmoliuk Brentford Ativo 158 / 162 40% 1 22.05.2027 -
Ethan Williams Peterborough United Ativo 117 / 116 40% 2 21.05.2027 -
Tyreece Campbell Charlton Athletic Ativo 110 / 127 40% 1 21.05.2027 -
Richard Koné Queens Park Rangers Ativo 121 / 114 40% 1 21.05.2027 -
Williams Manyama SuperSport United Ativo 118 / 109 40% 2 20.05.2027 -
Fer López Wolverhampton Ativo 126 / 134 40% 1 20.05.2027 -
Andrei Coubiş Lincoln City Ativo 122 / 120 40% 2 19.05.2027 -
Tino Livramento Newcastle United Ativo 150 / 161 40% 2 19.05.2027 -
Andre Brooks Sheffield United Ativo 121 / 137 40% 1 18.05.2027 -
Malick Fofana Sunderland Ativo 138 / 158 40% 1 18.05.2027 -
Assane Diao Lazio Ativo 142 / 156 40% 2 16.05.2027 -
Stanley Mills Oxford United Ativo 121 / 126 40% 1 16.05.2027 -
Adam Wharton Crystal Palace Ativo 145 / 145 40% 3 14.05.2027 -
Mohamed-Ali Cho Hull City Ativo 126 / 129 40% 1 14.05.2027 -
Ethan Pye Stockport County Ativo 109 / 111 40% 1 13.05.2027 -
Jarrad Branthwaite Everton Ativo 159 / 168 40% 2 10.05.2027 -
Ronnie Edwards Queens Park Rangers Ativo 122 / 134 40% 1 08.05.2027 -
Aaron Hickey Brentford Ativo 140 / 136 40% 1 08.05.2027 -
Kristoffer Lund Birmingham Ativo 123 / 128 40% 2 26.04.2027 -
Roberto Fernández Braga Ativo 148 / 144 40% 3 23.04.2027 -
Emi Rodriguez Leon Ativo 114 / 125 40% 1 23.04.2027 -
Tidjany Touré Gil Vicente Ativo 123 / 121 40% 1 23.04.2027 -
Bright Arrey-Mbi Braga Ativo 122 / 146 40% 2 22.04.2027 -
Sidny Lopes Cabral Trabzonspor Ativo 136 / 127 40% 1 22.04.2027 -
Carlos Alcaraz Everton Ativo 149 / 155 40% 2 19.04.2027 -
Rodrigo Ramos Moreirense Ativo 123 / 116 40% 1 17.04.2027 -
Tom Fellows Southampton Ativo 124 / 136 40% 1 17.04.2027 -
Alberto Costa Porto Ativo 135 / 135 40% 3 15.04.2027 -
Kevin Vazquez Cruz Azul Ativo 139 / 137 40% 1 15.04.2027 -
Pedro Bondo Famalicao Ativo 124 / 121 40% 3 14.04.2027 -
Lee Hyun-Ju Arouca Ativo 111 / 128 40% 1 14.04.2027 -
Mduduzi Shabalala Kaizer Chiefs Ativo 108 / 110 40% 1 14.04.2027 -
Hugo Pérez Torreense Ativo 135 / 129 40% 2 13.04.2027 -
Shea Charles Southampton Ativo 132 / 140 40% 3 11.04.2027 -
Iván Fresneda Sporting CP Ativo 147 / 131 40% 2 11.04.2027 -
Gabriel Veron Porto Ativo 128 / 136 40% 1 11.04.2027 -
Pablo Monroy Pumas UNAM Ativo 115 / 121 40% 1 11.04.2027 -
Rodrigo Pinheiro Famalicao Ativo 132 / 122 40% 1 10.04.2027 -
Noah Sadiki Sunderland Ativo 130 / 153 40% 2 09.04.2027 -
Charlie Webster Burton Albion Ativo 100 / 105 40% 1 09.04.2027 -
João Simões Sporting CP Ativo 140 / 136 40% 1 09.04.2027 -
Tomás Araújo Benfica Ativo 141 / 142 40% 1 04.04.2027 -
Luis Quintero Torreense Ativo 125 / 128 40% 1 01.04.2027 -
Finn van Breemen Famalicao Ativo 119 / 129 40% 1 28.03.2027 -
Tony Strata Vitoria Guimaraes Ativo 127 / 134 40% 1 26.03.2027 -
Teden Mengi Luton Town Ativo 128 / 137 40% 1 26.03.2027 -
Beni Mukendi Vitoria Guimaraes Ativo 111 / 128 40% 1 25.03.2027 -
Fidel Ambríz Monterrey Ativo 131 / 138 40% 1 25.03.2027 -
Omar Campos Cruz Azul Ativo 125 / 135 40% 1 23.03.2027 -
Brandon Aguilera Rio Ave Ativo 110 / 131 40% 1 21.03.2027 -
Gonçalo Nogueira Vitoria Guimaraes Ativo 132 / 111 40% 1 21.03.2027 -
Mateo Flores Arouca Ativo 103 / 126 40% 1 21.03.2027 -
Taichi Fukui Arouca Ativo 134 / 115 40% 1 19.03.2027 -
Heorhii Sudakov Benfica Ativo 152 / 148 40% 1 17.03.2027 -
Luís Guilherme Sporting CP Ativo 116 / 127 40% 1 17.03.2027 -